sensor_id;sensor_type;location;lat;lon;timestamp;pressure;altitude;pressure_sealevel;temperature;humidity
55460;BME280;41326;45.302;-122.946;2024-01-25T00:01:47;100411.20;;;18.77;61.78
55460;BME280;41326;45.302;-122.946;2024-01-25T00:04:17;100404.41;;;18.76;61.84
55460;BME280;41326;45.302;-122.946;2024-01-25T00:06:47;100404.38;;;18.76;61.91
55460;BME280;41326;45.302;-122.946;2024-01-25T00:09:17;100402.83;;;18.75;62.12
55460;BME280;41326;45.302;-122.946;2024-01-25T00:11:47;100399.45;;;18.78;61.98
55460;BME280;41326;45.302;-122.946;2024-01-25T00:14:17;100404.01;;;18.81;62.16
55460;BME280;41326;45.302;-122.946;2024-01-25T00:16:47;100412.19;;;18.90;62.06
55460;BME280;41326;45.302;-122.946;2024-01-25T00:19:18;100416.06;;;18.98;61.81
55460;BME280;41326;45.302;-122.946;2024-01-25T00:21:47;100419.14;;;19.16;61.40
55460;BME280;41326;45.302;-122.946;2024-01-25T00:24:17;100419.97;;;19.36;60.83
55460;BME280;41326;45.302;-122.946;2024-01-25T00:26:48;100426.16;;;19.42;60.42
55460;BME280;41326;45.302;-122.946;2024-01-25T00:29:18;100429.83;;;19.41;60.37
55460;BME280;41326;45.302;-122.946;2024-01-25T00:31:48;100441.65;;;19.33;60.58
55460;BME280;41326;45.302;-122.946;2024-01-25T00:34:18;100447.42;;;19.25;60.88
55460;BME280;41326;45.302;-122.946;2024-01-25T00:36:48;100448.59;;;19.16;61.19
55460;BME280;41326;45.302;-122.946;2024-01-25T00:39:19;100450.24;;;19.14;61.23
55460;BME280;41326;45.302;-122.946;2024-01-25T00:41:51;100447.15;;;19.04;61.51
55460;BME280;41326;45.302;-122.946;2024-01-25T00:44:19;100445.38;;;18.94;61.77
55460;BME280;41326;45.302;-122.946;2024-01-25T00:46:49;100447.09;;;18.88;61.94
55460;BME280;41326;45.302;-122.946;2024-01-25T00:49:19;100447.92;;;18.86;61.94
55460;BME280;41326;45.302;-122.946;2024-01-25T00:51:49;100453.63;;;18.87;61.84
55460;BME280;41326;45.302;-122.946;2024-01-25T00:54:19;100461.10;;;18.88;61.71
55460;BME280;41326;45.302;-122.946;2024-01-25T00:56:49;100471.53;;;18.89;61.64
55460;BME280;41326;45.302;-122.946;2024-01-25T00:59:19;100484.77;;;18.91;61.65
55460;BME280;41326;45.302;-122.946;2024-01-25T01:01:49;100497.74;;;18.89;61.66
55460;BME280;41326;45.302;-122.946;2024-01-25T01:04:20;100504.60;;;18.95;61.56
55460;BME280;41326;45.302;-122.946;2024-01-25T01:06:50;100508.61;;;19.06;61.34
55460;BME280;41326;45.302;-122.946;2024-01-25T01:09:19;100508.21;;;19.26;60.88
55460;BME280;41326;45.302;-122.946;2024-01-25T01:11:49;100511.52;;;19.40;60.33
55460;BME280;41326;45.302;-122.946;2024-01-25T01:14:19;100521.92;;;19.42;60.21
55460;BME280;41326;45.302;-122.946;2024-01-25T01:16:49;100514.03;;;19.45;60.11
55460;BME280;41326;45.302;-122.946;2024-01-25T01:19:21;100506.80;;;19.37;60.39
55460;BME280;41326;45.302;-122.946;2024-01-25T01:21:50;100508.60;;;19.28;60.77
55460;BME280;41326;45.302;-122.946;2024-01-25T01:24:20;100495.14;;;19.26;60.80
55460;BME280;41326;45.302;-122.946;2024-01-25T01:26:50;100488.31;;;19.20;61.07
55460;BME280;41326;45.302;-122.946;2024-01-25T01:29:21;100496.32;;;19.11;61.43
55460;BME280;41326;45.302;-122.946;2024-01-25T01:31:51;100499.92;;;19.09;61.57
55460;BME280;41326;45.302;-122.946;2024-01-25T01:34:21;100499.17;;;19.09;61.58
55460;BME280;41326;45.302;-122.946;2024-01-25T01:36:51;100496.03;;;19.08;61.47
55460;BME280;41326;45.302;-122.946;2024-01-25T01:39:21;100493.92;;;19.05;61.56
55460;BME280;41326;45.302;-122.946;2024-01-25T01:41:51;100497.63;;;19.03;61.69
55460;BME280;41326;45.302;-122.946;2024-01-25T01:44:21;100507.11;;;19.01;61.73
55460;BME280;41326;45.302;-122.946;2024-01-25T01:46:51;100518.53;;;19.03;61.61
55460;BME280;41326;45.302;-122.946;2024-01-25T01:49:22;100527.35;;;19.04;61.55
55460;BME280;41326;45.302;-122.946;2024-01-25T01:51:51;100530.33;;;19.18;61.25
55460;BME280;41326;45.302;-122.946;2024-01-25T01:54:21;100531.83;;;19.39;60.63
55460;BME280;41326;45.302;-122.946;2024-01-25T01:56:52;100528.70;;;19.46;60.55
55460;BME280;41326;45.302;-122.946;2024-01-25T01:59:22;100526.79;;;19.43;60.89
55460;BME280;41326;45.302;-122.946;2024-01-25T02:01:52;100530.17;;;19.41;61.26
55460;BME280;41326;45.302;-122.946;2024-01-25T02:04:22;100528.30;;;19.35;62.04
55460;BME280;41326;45.302;-122.946;2024-01-25T02:06:52;100526.25;;;19.33;62.30
55460;BME280;41326;45.302;-122.946;2024-01-25T02:09:23;100531.33;;;19.30;62.65
55460;BME280;41326;45.302;-122.946;2024-01-25T02:12:00;100536.09;;;19.31;62.97
55460;BME280;41326;45.302;-122.946;2024-01-25T02:14:22;100539.86;;;19.32;63.42
55460;BME280;41326;45.302;-122.946;2024-01-25T02:16:52;100536.73;;;19.32;63.66
55460;BME280;41326;45.302;-122.946;2024-01-25T02:19:23;100540.79;;;19.34;63.76
55460;BME280;41326;45.302;-122.946;2024-01-25T02:21:54;100537.13;;;19.30;64.15
55460;BME280;41326;45.302;-122.946;2024-01-25T02:24:23;100536.46;;;19.34;64.39
55460;BME280;41326;45.302;-122.946;2024-01-25T02:26:53;100537.30;;;19.35;64.55
55460;BME280;41326;45.302;-122.946;2024-01-25T02:29:23;100539.13;;;19.34;64.74
55460;BME280;41326;45.302;-122.946;2024-01-25T02:31:53;100538.64;;;19.33;64.48
55460;BME280;41326;45.302;-122.946;2024-01-25T02:34:24;100540.86;;;19.35;64.16
55460;BME280;41326;45.302;-122.946;2024-01-25T02:36:54;100540.88;;;19.37;63.96
55460;BME280;41326;45.302;-122.946;2024-01-25T02:39:24;100544.52;;;19.38;63.79
55460;BME280;41326;45.302;-122.946;2024-01-25T02:41:54;100550.81;;;19.36;63.55
55460;BME280;41326;45.302;-122.946;2024-01-25T02:44:25;100550.61;;;19.33;63.02
55460;BME280;41326;45.302;-122.946;2024-01-25T02:46:55;100556.43;;;19.31;63.03
55460;BME280;41326;45.302;-122.946;2024-01-25T02:49:25;100554.32;;;19.27;63.15
55460;BME280;41326;45.302;-122.946;2024-01-25T02:51:55;100556.08;;;19.27;62.97
55460;BME280;41326;45.302;-122.946;2024-01-25T02:54:25;100554.15;;;19.25;62.93
55460;BME280;41326;45.302;-122.946;2024-01-25T02:56:55;100552.60;;;19.24;63.07
55460;BME280;41326;45.302;-122.946;2024-01-25T02:59:25;100549.56;;;19.21;63.01
55460;BME280;41326;45.302;-122.946;2024-01-25T03:01:55;100549.38;;;19.18;63.09
55460;BME280;41326;45.302;-122.946;2024-01-25T03:04:25;100548.04;;;19.17;63.81
55460;BME280;41326;45.302;-122.946;2024-01-25T03:06:55;100555.06;;;19.19;64.09
55460;BME280;41326;45.302;-122.946;2024-01-25T03:09:25;100555.36;;;19.32;63.46
55460;BME280;41326;45.302;-122.946;2024-01-25T03:11:56;100553.97;;;19.49;62.70
55460;BME280;41326;45.302;-122.946;2024-01-25T03:14:26;100553.06;;;19.54;62.30
55460;BME280;41326;45.302;-122.946;2024-01-25T03:16:56;100555.21;;;19.56;62.01
55460;BME280;41326;45.302;-122.946;2024-01-25T03:19:28;100558.13;;;19.53;61.75
55460;BME280;41326;45.302;-122.946;2024-01-25T03:21:56;100563.28;;;19.40;61.78
55460;BME280;41326;45.302;-122.946;2024-01-25T03:24:26;100566.01;;;19.44;61.47
55460;BME280;41326;45.302;-122.946;2024-01-25T03:26:56;100574.00;;;19.56;61.00
55460;BME280;41326;45.302;-122.946;2024-01-25T03:29:26;100583.57;;;19.64;60.54
55460;BME280;41326;45.302;-122.946;2024-01-25T03:31:56;100580.00;;;19.61;60.46
55460;BME280;41326;45.302;-122.946;2024-01-25T03:34:26;100577.13;;;19.55;60.41
55460;BME280;41326;45.302;-122.946;2024-01-25T03:36:56;100576.96;;;19.44;60.56
55460;BME280;41326;45.302;-122.946;2024-01-25T03:39:27;100573.41;;;19.34;60.76
55460;BME280;41326;45.302;-122.946;2024-01-25T03:41:57;100571.49;;;19.35;60.62
55460;BME280;41326;45.302;-122.946;2024-01-25T03:44:27;100574.68;;;19.45;60.30
55460;BME280;41326;45.302;-122.946;2024-01-25T03:46:57;100574.99;;;19.59;59.78
55460;BME280;41326;45.302;-122.946;2024-01-25T03:49:28;100572.96;;;19.60;59.58
55460;BME280;41326;45.302;-122.946;2024-01-25T03:51:57;100575.65;;;19.54;59.57
55460;BME280;41326;45.302;-122.946;2024-01-25T03:54:27;100577.98;;;19.47;59.66
55460;BME280;41326;45.302;-122.946;2024-01-25T03:56:57;100586.74;;;19.38;59.81
55460;BME280;41326;45.302;-122.946;2024-01-25T03:59:27;100598.58;;;19.30;59.94
55460;BME280;41326;45.302;-122.946;2024-01-25T04:01:57;100631.73;;;19.23;60.09
55460;BME280;41326;45.302;-122.946;2024-01-25T04:04:28;100692.23;;;19.37;59.78
55460;BME280;41326;45.302;-122.946;2024-01-25T04:06:58;100693.03;;;19.44;59.27
55460;BME280;41326;45.302;-122.946;2024-01-25T04:09:28;100694.15;;;19.47;59.21
55460;BME280;41326;45.302;-122.946;2024-01-25T04:11:58;100677.14;;;19.38;59.45
55460;BME280;41326;45.302;-122.946;2024-01-25T04:14:28;100690.40;;;19.36;59.52
55460;BME280;41326;45.302;-122.946;2024-01-25T04:16:58;100703.48;;;19.35;59.55
55460;BME280;41326;45.302;-122.946;2024-01-25T04:19:28;100681.40;;;19.32;59.58
55460;BME280;41326;45.302;-122.946;2024-01-25T04:21:58;100705.48;;;19.25;59.80
55460;BME280;41326;45.302;-122.946;2024-01-25T04:24:28;100706.00;;;19.20;59.94
55460;BME280;41326;45.302;-122.946;2024-01-25T04:26:58;100690.05;;;19.14;60.07
55460;BME280;41326;45.302;-122.946;2024-01-25T04:29:28;100686.55;;;19.08;60.28
55460;BME280;41326;45.302;-122.946;2024-01-25T04:31:58;100703.29;;;19.06;60.41
55460;BME280;41326;45.302;-122.946;2024-01-25T04:34:28;100714.98;;;19.05;60.46
55460;BME280;41326;45.302;-122.946;2024-01-25T04:36:59;100711.25;;;19.00;60.67
55460;BME280;41326;45.302;-122.946;2024-01-25T04:39:29;100706.47;;;18.97;60.77
55460;BME280;41326;45.302;-122.946;2024-01-25T04:41:59;100705.47;;;18.93;60.90
55460;BME280;41326;45.302;-122.946;2024-01-25T04:44:29;100692.39;;;19.00;60.78
55460;BME280;41326;45.302;-122.946;2024-01-25T04:46:59;100690.88;;;19.14;60.58
55460;BME280;41326;45.302;-122.946;2024-01-25T04:49:29;100682.89;;;19.31;60.15
55460;BME280;41326;45.302;-122.946;2024-01-25T04:51:59;100677.23;;;19.35;59.97
55460;BME280;41326;45.302;-122.946;2024-01-25T04:54:29;100672.44;;;19.32;60.15
55460;BME280;41326;45.302;-122.946;2024-01-25T04:56:59;100682.12;;;19.29;60.28
55460;BME280;41326;45.302;-122.946;2024-01-25T04:59:29;100684.82;;;19.27;60.86
55460;BME280;41326;45.302;-122.946;2024-01-25T05:02:00;100681.48;;;19.23;61.13
55460;BME280;41326;45.302;-122.946;2024-01-25T05:04:30;100678.95;;;19.22;61.71
55460;BME280;41326;45.302;-122.946;2024-01-25T05:07:00;100674.06;;;19.25;62.20
55460;BME280;41326;45.302;-122.946;2024-01-25T05:09:30;100674.18;;;19.27;62.63
55460;BME280;41326;45.302;-122.946;2024-01-25T05:12:00;100672.64;;;19.31;63.19
55460;BME280;41326;45.302;-122.946;2024-01-25T05:14:30;100673.07;;;19.35;63.91
55460;BME280;41326;45.302;-122.946;2024-01-25T05:17:01;100676.29;;;19.36;64.06
55460;BME280;41326;45.302;-122.946;2024-01-25T05:19:31;100684.69;;;19.36;63.96
55460;BME280;41326;45.302;-122.946;2024-01-25T05:22:01;100684.94;;;19.29;63.78
55460;BME280;41326;45.302;-122.946;2024-01-25T05:24:31;100684.90;;;19.22;63.49
55460;BME280;41326;45.302;-122.946;2024-01-25T05:27:01;100685.79;;;19.19;63.40
55460;BME280;41326;45.302;-122.946;2024-01-25T05:29:31;100687.91;;;19.18;63.31
55460;BME280;41326;45.302;-122.946;2024-01-25T05:32:02;100682.03;;;19.14;63.19
55460;BME280;41326;45.302;-122.946;2024-01-25T05:34:32;100682.26;;;19.09;63.16
55460;BME280;41326;45.302;-122.946;2024-01-25T05:37:02;100691.23;;;19.07;63.29
55460;BME280;41326;45.302;-122.946;2024-01-25T05:39:32;100696.72;;;19.06;63.25
55460;BME280;41326;45.302;-122.946;2024-01-25T05:42:02;100704.68;;;19.06;63.42
55460;BME280;41326;45.302;-122.946;2024-01-25T05:44:32;100702.80;;;19.07;63.22
55460;BME280;41326;45.302;-122.946;2024-01-25T05:47:02;100710.87;;;19.02;63.21
55460;BME280;41326;45.302;-122.946;2024-01-25T05:49:32;100718.71;;;19.02;63.02
55460;BME280;41326;45.302;-122.946;2024-01-25T05:52:03;100722.39;;;18.97;62.95
55460;BME280;41326;45.302;-122.946;2024-01-25T05:54:33;100728.59;;;18.96;62.92
55460;BME280;41326;45.302;-122.946;2024-01-25T05:57:03;100718.27;;;18.94;62.87
55460;BME280;41326;45.302;-122.946;2024-01-25T05:59:33;100723.65;;;19.03;62.55
55460;BME280;41326;45.302;-122.946;2024-01-25T06:02:03;100729.94;;;19.22;61.95
55460;BME280;41326;45.302;-122.946;2024-01-25T06:04:33;100728.45;;;19.36;61.37
55460;BME280;41326;45.302;-122.946;2024-01-25T06:07:03;100737.80;;;19.41;61.20
55460;BME280;41326;45.302;-122.946;2024-01-25T06:09:33;100736.48;;;19.39;61.19
55460;BME280;41326;45.302;-122.946;2024-01-25T06:12:04;100737.68;;;19.34;61.36
55460;BME280;41326;45.302;-122.946;2024-01-25T06:14:34;100736.67;;;19.29;61.48
55460;BME280;41326;45.302;-122.946;2024-01-25T06:17:05;100738.30;;;19.27;61.51
55460;BME280;41326;45.302;-122.946;2024-01-25T06:19:35;100740.27;;;19.30;61.52
55460;BME280;41326;45.302;-122.946;2024-01-25T06:22:05;100738.93;;;19.27;61.59
55460;BME280;41326;45.302;-122.946;2024-01-25T06:24:35;100741.64;;;19.23;61.58
55460;BME280;41326;45.302;-122.946;2024-01-25T06:27:05;100741.36;;;19.18;61.64
55460;BME280;41326;45.302;-122.946;2024-01-25T06:29:35;100743.78;;;19.13;61.70
55460;BME280;41326;45.302;-122.946;2024-01-25T06:32:06;100750.24;;;19.12;61.65
55460;BME280;41326;45.302;-122.946;2024-01-25T06:34:35;100754.01;;;19.16;61.46
55460;BME280;41326;45.302;-122.946;2024-01-25T06:37:05;100756.59;;;19.29;61.11
55460;BME280;41326;45.302;-122.946;2024-01-25T06:39:35;100759.83;;;19.40;60.71
55460;BME280;41326;45.302;-122.946;2024-01-25T06:42:06;100757.52;;;19.41;60.67
55460;BME280;41326;45.302;-122.946;2024-01-25T06:44:36;100764.69;;;19.37;60.88
55460;BME280;41326;45.302;-122.946;2024-01-25T06:47:06;100769.80;;;19.30;61.12
55460;BME280;41326;45.302;-122.946;2024-01-25T06:49:36;100768.58;;;19.28;61.17
55460;BME280;41326;45.302;-122.946;2024-01-25T06:52:06;100770.68;;;19.24;61.32
55460;BME280;41326;45.302;-122.946;2024-01-25T06:54:36;100768.99;;;19.19;61.43
55460;BME280;41326;45.302;-122.946;2024-01-25T06:57:06;100769.56;;;19.16;61.57
55460;BME280;41326;45.302;-122.946;2024-01-25T06:59:36;100770.14;;;19.13;61.68
55460;BME280;41326;45.302;-122.946;2024-01-25T07:02:06;100775.62;;;19.07;61.93
55460;BME280;41326;45.302;-122.946;2024-01-25T07:04:36;100783.56;;;19.03;62.07
55460;BME280;41326;45.302;-122.946;2024-01-25T07:07:06;100787.21;;;18.97;62.17
55460;BME280;41326;45.302;-122.946;2024-01-25T07:09:36;100791.75;;;19.05;62.00
55460;BME280;41326;45.302;-122.946;2024-01-25T07:12:07;100804.00;;;19.22;61.50
55460;BME280;41326;45.302;-122.946;2024-01-25T07:14:37;100804.35;;;19.31;61.26
55460;BME280;41326;45.302;-122.946;2024-01-25T07:17:07;100809.46;;;19.35;61.12
55460;BME280;41326;45.302;-122.946;2024-01-25T07:19:37;100810.85;;;19.35;61.08
55460;BME280;41326;45.302;-122.946;2024-01-25T07:22:07;100813.23;;;19.30;61.24
55460;BME280;41326;45.302;-122.946;2024-01-25T07:24:37;100814.37;;;19.26;61.38
55460;BME280;41326;45.302;-122.946;2024-01-25T07:27:07;100814.53;;;19.14;61.73
55460;BME280;41326;45.302;-122.946;2024-01-25T07:29:37;100820.42;;;19.08;61.95
55460;BME280;41326;45.302;-122.946;2024-01-25T07:32:07;100822.04;;;19.01;62.13
55460;BME280;41326;45.302;-122.946;2024-01-25T07:34:37;100829.48;;;18.98;62.20
55460;BME280;41326;45.302;-122.946;2024-01-25T07:37:07;100834.53;;;18.98;62.29
55460;BME280;41326;45.302;-122.946;2024-01-25T07:39:37;100842.00;;;18.94;62.43
55460;BME280;41326;45.302;-122.946;2024-01-25T07:42:08;100844.60;;;18.97;62.26
55460;BME280;41326;45.302;-122.946;2024-01-25T07:44:38;100846.87;;;19.10;61.98
55460;BME280;41326;45.302;-122.946;2024-01-25T07:47:08;100847.63;;;19.26;61.49
55460;BME280;41326;45.302;-122.946;2024-01-25T07:49:38;100853.06;;;19.33;61.26
55460;BME280;41326;45.302;-122.946;2024-01-25T07:52:08;100853.95;;;19.31;61.32
55460;BME280;41326;45.302;-122.946;2024-01-25T07:54:38;100855.22;;;19.28;61.42
55460;BME280;41326;45.302;-122.946;2024-01-25T07:57:09;100847.05;;;19.30;61.39
55460;BME280;41326;45.302;-122.946;2024-01-25T07:59:38;100841.69;;;19.27;61.50
55460;BME280;41326;45.302;-122.946;2024-01-25T08:02:08;100836.38;;;19.20;61.68
55460;BME280;41326;45.302;-122.946;2024-01-25T08:04:39;100836.92;;;19.16;61.79
55460;BME280;41326;45.302;-122.946;2024-01-25T08:07:08;100836.15;;;19.13;61.91
55460;BME280;41326;45.302;-122.946;2024-01-25T08:09:39;100834.72;;;19.06;62.10
55460;BME280;41326;45.302;-122.946;2024-01-25T08:12:09;100829.31;;;18.97;62.35
55460;BME280;41326;45.302;-122.946;2024-01-25T08:14:39;100821.18;;;18.93;62.47
55460;BME280;41326;45.302;-122.946;2024-01-25T08:17:09;100819.11;;;18.98;62.32
55460;BME280;41326;45.302;-122.946;2024-01-25T08:19:40;100824.45;;;18.96;62.27
55460;BME280;41326;45.302;-122.946;2024-01-25T08:22:09;100822.17;;;19.07;62.01
55460;BME280;41326;45.302;-122.946;2024-01-25T08:24:39;100825.03;;;19.23;61.52
55460;BME280;41326;45.302;-122.946;2024-01-25T08:27:09;100827.46;;;19.31;61.26
55460;BME280;41326;45.302;-122.946;2024-01-25T08:29:39;100827.78;;;19.28;61.34
55460;BME280;41326;45.302;-122.946;2024-01-25T08:32:09;100825.59;;;19.24;61.41
55460;BME280;41326;45.302;-122.946;2024-01-25T08:34:39;100825.58;;;19.20;61.51
55460;BME280;41326;45.302;-122.946;2024-01-25T08:37:10;100826.46;;;19.14;61.73
55460;BME280;41326;45.302;-122.946;2024-01-25T08:39:40;100828.11;;;19.06;62.02
55460;BME280;41326;45.302;-122.946;2024-01-25T08:42:10;100828.03;;;18.97;62.30
55460;BME280;41326;45.302;-122.946;2024-01-25T08:44:40;100830.42;;;18.93;62.47
55460;BME280;41326;45.302;-122.946;2024-01-25T08:47:10;100833.35;;;18.90;62.45
55460;BME280;41326;45.302;-122.946;2024-01-25T08:49:40;100830.83;;;19.00;62.23
55460;BME280;41326;45.302;-122.946;2024-01-25T08:52:10;100832.25;;;19.14;61.73
55460;BME280;41326;45.302;-122.946;2024-01-25T08:54:40;100835.80;;;19.23;61.53
55460;BME280;41326;45.302;-122.946;2024-01-25T08:57:10;100839.42;;;19.19;61.68
55460;BME280;41326;45.302;-122.946;2024-01-25T08:59:40;100845.56;;;19.18;61.77
55460;BME280;41326;45.302;-122.946;2024-01-25T09:02:11;100849.11;;;19.15;61.86
55460;BME280;41326;45.302;-122.946;2024-01-25T09:04:41;100851.86;;;19.09;62.06
55460;BME280;41326;45.302;-122.946;2024-01-25T09:07:11;100860.80;;;19.00;62.34
55460;BME280;41326;45.302;-122.946;2024-01-25T09:09:41;100862.17;;;18.99;62.35
55460;BME280;41326;45.302;-122.946;2024-01-25T09:12:11;100861.56;;;19.05;62.20
55460;BME280;41326;45.302;-122.946;2024-01-25T09:14:41;100859.52;;;19.22;61.69
55460;BME280;41326;45.302;-122.946;2024-01-25T09:17:11;100863.36;;;19.37;61.17
55460;BME280;41326;45.302;-122.946;2024-01-25T09:19:42;100863.08;;;19.39;61.13
55460;BME280;41326;45.302;-122.946;2024-01-25T09:22:11;100866.43;;;19.34;61.25
55460;BME280;41326;45.302;-122.946;2024-01-25T09:24:41;100865.57;;;19.27;61.48
55460;BME280;41326;45.302;-122.946;2024-01-25T09:27:12;100867.89;;;19.17;61.76
55460;BME280;41326;45.302;-122.946;2024-01-25T09:29:42;100872.59;;;19.10;61.95
55460;BME280;41326;45.302;-122.946;2024-01-25T09:32:12;100876.79;;;19.00;62.25
55460;BME280;41326;45.302;-122.946;2024-01-25T09:34:42;100882.63;;;18.97;62.37
55460;BME280;41326;45.302;-122.946;2024-01-25T09:37:12;100887.11;;;18.92;62.54
55460;BME280;41326;45.302;-122.946;2024-01-25T09:39:42;100889.82;;;18.86;62.71
55460;BME280;41326;45.302;-122.946;2024-01-25T09:42:12;100894.21;;;18.81;62.89
55460;BME280;41326;45.302;-122.946;2024-01-25T09:44:43;100898.73;;;18.84;62.78
55460;BME280;41326;45.302;-122.946;2024-01-25T09:47:12;100899.45;;;19.00;62.27
55460;BME280;41326;45.302;-122.946;2024-01-25T09:49:42;100905.24;;;19.18;61.66
55460;BME280;41326;45.302;-122.946;2024-01-25T09:52:13;100907.40;;;19.27;61.33
55460;BME280;41326;45.302;-122.946;2024-01-25T09:54:43;100912.60;;;19.29;61.27
55460;BME280;41326;45.302;-122.946;2024-01-25T09:57:15;100916.64;;;19.25;61.41
55460;BME280;41326;45.302;-122.946;2024-01-25T09:59:43;100917.11;;;19.18;61.61
55460;BME280;41326;45.302;-122.946;2024-01-25T10:02:13;100917.17;;;19.12;61.85
55460;BME280;41326;45.302;-122.946;2024-01-25T10:04:46;100919.69;;;19.04;62.09
55460;BME280;41326;45.302;-122.946;2024-01-25T10:07:13;100919.54;;;18.95;62.25
55460;BME280;41326;45.302;-122.946;2024-01-25T10:09:43;100920.55;;;19.06;61.97
55460;BME280;41326;45.302;-122.946;2024-01-25T10:12:13;100924.14;;;19.23;61.48
55460;BME280;41326;45.302;-122.946;2024-01-25T10:14:43;100928.66;;;19.34;61.15
55460;BME280;41326;45.302;-122.946;2024-01-25T10:17:13;100932.75;;;19.37;61.08
55460;BME280;41326;45.302;-122.946;2024-01-25T10:19:44;100935.19;;;19.36;61.13
55460;BME280;41326;45.302;-122.946;2024-01-25T10:22:13;100942.74;;;19.31;61.25
55460;BME280;41326;45.302;-122.946;2024-01-25T10:24:43;100945.63;;;19.22;61.55
55460;BME280;41326;45.302;-122.946;2024-01-25T10:27:14;100946.43;;;19.15;61.74
55460;BME280;41326;45.302;-122.946;2024-01-25T10:29:44;100947.57;;;19.07;61.97
55460;BME280;41326;45.302;-122.946;2024-01-25T10:32:14;100947.60;;;19.03;62.06
55460;BME280;41326;45.302;-122.946;2024-01-25T10:34:46;100948.09;;;18.99;62.16
55460;BME280;41326;45.302;-122.946;2024-01-25T10:37:14;100951.57;;;18.95;62.28
55460;BME280;41326;45.302;-122.946;2024-01-25T10:39:45;100958.43;;;18.96;62.21
55460;BME280;41326;45.302;-122.946;2024-01-25T10:42:14;100960.47;;;19.09;61.84
55460;BME280;41326;45.302;-122.946;2024-01-25T10:44:44;100963.82;;;19.24;61.39
55460;BME280;41326;45.302;-122.946;2024-01-25T10:47:14;100965.86;;;19.27;61.29
55460;BME280;41326;45.302;-122.946;2024-01-25T10:49:47;100963.16;;;19.25;61.33
55460;BME280;41326;45.302;-122.946;2024-01-25T10:52:15;100962.97;;;19.19;61.42
55460;BME280;41326;45.302;-122.946;2024-01-25T10:54:44;100964.96;;;19.17;61.47
55460;BME280;41326;45.302;-122.946;2024-01-25T10:57:15;100968.92;;;19.13;61.59
55460;BME280;41326;45.302;-122.946;2024-01-25T10:59:45;100969.93;;;19.06;61.87
55460;BME280;41326;45.302;-122.946;2024-01-25T11:02:18;100971.84;;;19.00;62.05
55460;BME280;41326;45.302;-122.946;2024-01-25T11:04:53;100972.87;;;18.96;62.21
55460;BME280;41326;45.302;-122.946;2024-01-25T11:07:15;100972.05;;;18.93;62.27
55460;BME280;41326;45.302;-122.946;2024-01-25T11:09:46;100973.15;;;18.98;62.10
55460;BME280;41326;45.302;-122.946;2024-01-25T11:12:19;100975.85;;;19.11;61.73
55460;BME280;41326;45.302;-122.946;2024-01-25T11:14:45;100982.12;;;19.31;61.11
55460;BME280;41326;45.302;-122.946;2024-01-25T11:17:19;100982.50;;;19.38;60.83
55460;BME280;41326;45.302;-122.946;2024-01-25T11:19:46;100983.75;;;19.39;60.78
55460;BME280;41326;45.302;-122.946;2024-01-25T11:22:15;100985.31;;;19.33;61.01
55460;BME280;41326;45.302;-122.946;2024-01-25T11:24:45;100985.63;;;19.28;61.14
55460;BME280;41326;45.302;-122.946;2024-01-25T11:27:16;100984.69;;;19.18;61.43
55460;BME280;41326;45.302;-122.946;2024-01-25T11:29:46;100983.63;;;19.12;61.59
55460;BME280;41326;45.302;-122.946;2024-01-25T11:32:16;100985.48;;;19.08;61.65
55460;BME280;41326;45.302;-122.946;2024-01-25T11:34:46;100987.96;;;19.01;61.87
55460;BME280;41326;45.302;-122.946;2024-01-25T11:37:16;100985.53;;;18.94;62.14
55460;BME280;41326;45.302;-122.946;2024-01-25T11:39:46;100989.15;;;18.91;62.21
55460;BME280;41326;45.302;-122.946;2024-01-25T11:42:16;100984.75;;;18.89;62.25
55460;BME280;41326;45.302;-122.946;2024-01-25T11:44:46;100983.24;;;18.98;61.98
55460;BME280;41326;45.302;-122.946;2024-01-25T11:47:16;100977.47;;;19.17;61.45
55460;BME280;41326;45.302;-122.946;2024-01-25T11:49:46;100982.88;;;19.29;61.05
55460;BME280;41326;45.302;-122.946;2024-01-25T11:52:16;100988.04;;;19.33;60.86
55460;BME280;41326;45.302;-122.946;2024-01-25T11:54:46;100989.17;;;19.30;60.89
55460;BME280;41326;45.302;-122.946;2024-01-25T11:57:17;100988.70;;;19.26;61.07
55460;BME280;41326;45.302;-122.946;2024-01-25T11:59:47;100993.71;;;19.21;61.18
55460;BME280;41326;45.302;-122.946;2024-01-25T12:02:17;100996.14;;;19.13;61.43
55460;BME280;41326;45.302;-122.946;2024-01-25T12:04:47;100998.71;;;19.06;61.64
55460;BME280;41326;45.302;-122.946;2024-01-25T12:07:17;100999.04;;;19.02;61.74
55460;BME280;41326;45.302;-122.946;2024-01-25T12:12:17;101005.52;;;18.96;61.79
55460;BME280;41326;45.302;-122.946;2024-01-25T12:14:47;101006.34;;;18.96;61.78
55460;BME280;41326;45.302;-122.946;2024-01-25T12:17:17;101010.06;;;18.97;61.80
55460;BME280;41326;45.302;-122.946;2024-01-25T12:19:48;101014.36;;;18.95;61.82
55460;BME280;41326;45.302;-122.946;2024-01-25T12:22:21;101016.78;;;18.96;61.64
55460;BME280;41326;45.302;-122.946;2024-01-25T12:24:48;101022.05;;;19.15;61.15
55460;BME280;41326;45.302;-122.946;2024-01-25T12:27:18;101023.58;;;19.28;60.69
55460;BME280;41326;45.302;-122.946;2024-01-25T12:29:48;101024.82;;;19.34;60.52
55460;BME280;41326;45.302;-122.946;2024-01-25T12:32:18;101022.26;;;19.34;60.43
55460;BME280;41326;45.302;-122.946;2024-01-25T12:34:54;101029.68;;;19.29;60.59
55460;BME280;41326;45.302;-122.946;2024-01-25T12:37:18;101034.73;;;19.26;60.66